<?xml version="1.0" encoding="UTF-8" standalone="no" ?>
<gpx xmlns="http://www.topografix.com/GPX/1/1" xmlns:xsi="http://www.w3.org/2001/XMLSchema-instance" xsi:schemaLocation="http://www.topografix.com/GPX/1/1 http://www.topografix.com/GPX/1/1/gpx.xsd" version="1.1" creator="VisuGPX - https://www.visugpx.com">
  <metadata>
    <name>64 - PEDESTRE - Bielle - Col d Aran</name>
    <desc><![CDATA[Sortie dans les nuages]]></desc>
  </metadata>
  <wpt lat="43.04932" lon="-0.50845">
    <ele>1796.095215</ele>
    <name><![CDATA[1796-Roche]]></name>
    <desc><![CDATA[Rocher d'Aran 1796m]]></desc>
    <cmt><![CDATA[Rocher d'Aran 1796m]]></cmt>
  </wpt>
  <wpt lat="43.04407" lon="-0.48261">
    <ele>-0.11438</ele>
    <name><![CDATA[Cabane]]></name>
  </wpt>
  <wpt lat="43.06193" lon="-0.45703">
    <ele>816.519287</ele>
    <name><![CDATA[Chapelle]]></name>
    <desc><![CDATA[Chapelle de Houndas]]></desc>
    <cmt><![CDATA[Chapelle de Houndas]]></cmt>
  </wpt>
  <wpt lat="43.04426" lon="-0.50295">
    <ele>-0.11438</ele>
    <name><![CDATA[Col D'Aran]]></name>
    <desc><![CDATA[Col D'Aran 1654m]]></desc>
    <cmt><![CDATA[Col D'Aran 1654m]]></cmt>
  </wpt>
  <wpt lat="43.05885" lon="-0.46319">
    <ele>-0.11438</ele>
    <name><![CDATA[Depart]]></name>
    <desc><![CDATA[Départ]]></desc>
    <cmt><![CDATA[Départ]]></cmt>
  </wpt>
  <trk>
    <name><![CDATA[ACTIVE LOG 004]]></name>
    <trkseg>
      <trkpt lat="43.05884" lon="-0.4628">
        <ele>840.810059</ele>
        <time>2013-09-01T08:12:35Z</time>
      </trkpt>
      <trkpt lat="43.05884" lon="-0.4628">
        <ele>840.810059</ele>
        <time>2013-09-01T08:12:36Z</time>
      </trkpt>
      <trkpt lat="43.05884" lon="-0.4628">
        <ele>844.655518</ele>
        <time>2013-09-01T08:12:40Z</time>
      </trkpt>
      <trkpt lat="43.05884" lon="-0.4628">
        <ele>847.539551</ele>
        <time>2013-09-01T08:12:44Z</time>
      </trkpt>
      <trkpt lat="43.05884" lon="-0.46279">
        <ele>848.981445</ele>
        <time>2013-09-01T08:12:47Z</time>
      </trkpt>
      <trkpt lat="43.05884" lon="-0.46279">
        <ele>851.384766</ele>
        <time>2013-09-01T08:12:49Z</time>
      </trkpt>
      <trkpt lat="43.05885" lon="-0.46278">
        <ele>854.749268</ele>
        <time>2013-09-01T08:12:53Z</time>
      </trkpt>
      <trkpt lat="43.05885" lon="-0.4628">
        <ele>857.633301</ele>
        <time>2013-09-01T08:12:59Z</time>
      </trkpt>
      <trkpt lat="43.05886" lon="-0.4628">
        <ele>860.036621</ele>
        <time>2013-09-01T08:13:02Z</time>
      </trkpt>
      <trkpt lat="43.05886" lon="-0.46281">
        <ele>862.920654</ele>
        <time>2013-09-01T08:13:12Z</time>
      </trkpt>
      <trkpt lat="43.05886" lon="-0.46279">
        <ele>866.285156</ele>
        <time>2013-09-01T08:13:25Z</time>
      </trkpt>
      <trkpt lat="43.05886" lon="-0.46277">
        <ele>869.649902</ele>
        <time>2013-09-01T08:13:53Z</time>
      </trkpt>
      <trkpt lat="43.05886" lon="-0.46279">
        <ele>871.572266</ele>
        <time>2013-09-01T08:14:30Z</time>
      </trkpt>
      <trkpt lat="43.05883" lon="-0.46277">
        <ele>871.572266</ele>
        <time>2013-09-01T08:14:51Z</time>
      </trkpt>
      <trkpt lat="43.05884" lon="-0.46276">
        <ele>872.533691</ele>
        <time>2013-09-01T08:15:10Z</time>
      </trkpt>
      <trkpt lat="43.05887" lon="-0.46273">
        <ele>871.091797</ele>
        <time>2013-09-01T08:15:28Z</time>
      </trkpt>
      <trkpt lat="43.05888" lon="-0.46277">
        <ele>872.533691</ele>
        <time>2013-09-01T08:15:48Z</time>
      </trkpt>
      <trkpt lat="43.05887" lon="-0.46277">
        <ele>871.091797</ele>
        <time>2013-09-01T08:16:14Z</time>
      </trkpt>
      <trkpt lat="43.05888" lon="-0.46278">
        <ele>871.572266</ele>
        <time>2013-09-01T08:17:45Z</time>
      </trkpt>
      <trkpt lat="43.05888" lon="-0.46278">
        <ele>871.091797</ele>
        <time>2013-09-01T08:18:21Z</time>
      </trkpt>
      <trkpt lat="43.05882" lon="-0.4628">
        <ele>871.091797</ele>
        <time>2013-09-01T08:18:45Z</time>
      </trkpt>
      <trkpt lat="43.05879" lon="-0.46296">
        <ele>873.014404</ele>
        <time>2013-09-01T08:19:01Z</time>
      </trkpt>
      <trkpt lat="43.05872" lon="-0.46313">
        <ele>874.456299</ele>
        <time>2013-09-01T08:19:19Z</time>
      </trkpt>
      <trkpt lat="43.05865" lon="-0.46319">
        <ele>876.859863</ele>
        <time>2013-09-01T08:19:32Z</time>
      </trkpt>
      <trkpt lat="43.05849" lon="-0.46324">
        <ele>877.821045</ele>
        <time>2013-09-01T08:19:48Z</time>
      </trkpt>
      <trkpt lat="43.05836" lon="-0.46332">
        <ele>880.224365</ele>
        <time>2013-09-01T08:20:04Z</time>
      </trkpt>
      <trkpt lat="43.05824" lon="-0.46338">
        <ele>881.66626</ele>
        <time>2013-09-01T08:20:18Z</time>
      </trkpt>
      <trkpt lat="43.05806" lon="-0.46341">
        <ele>883.108154</ele>
        <time>2013-09-01T08:20:34Z</time>
      </trkpt>
      <trkpt lat="43.05792" lon="-0.46348">
        <ele>885.511475</ele>
        <time>2013-09-01T08:20:51Z</time>
      </trkpt>
      <trkpt lat="43.05779" lon="-0.46357">
        <ele>886.953369</ele>
        <time>2013-09-01T08:21:08Z</time>
      </trkpt>
      <trkpt lat="43.05778" lon="-0.46359">
        <ele>887.434082</ele>
        <time>2013-09-01T08:21:10Z</time>
      </trkpt>
      <trkpt lat="43.05757" lon="-0.4637">
        <ele>890.318115</ele>
        <time>2013-09-01T08:21:30Z</time>
      </trkpt>
      <trkpt lat="43.05746" lon="-0.46372">
        <ele>891.279297</ele>
        <time>2013-09-01T08:21:43Z</time>
      </trkpt>
      <trkpt lat="43.05727" lon="-0.46374">
        <ele>891.76001</ele>
        <time>2013-09-01T08:21:58Z</time>
      </trkpt>
      <trkpt lat="43.05707" lon="-0.46379">
        <ele>892.240967</ele>
        <time>2013-09-01T08:22:17Z</time>
      </trkpt>
      <trkpt lat="43.05685" lon="-0.46387">
        <ele>893.682861</ele>
        <time>2013-09-01T08:22:37Z</time>
      </trkpt>
      <trkpt lat="43.05666" lon="-0.46395">
        <ele>897.047363</ele>
        <time>2013-09-01T08:22:56Z</time>
      </trkpt>
      <trkpt lat="43.05647" lon="-0.46407">
        <ele>898.489258</ele>
        <time>2013-09-01T08:23:16Z</time>
      </trkpt>
      <trkpt lat="43.05626" lon="-0.46426">
        <ele>901.373291</ele>
        <time>2013-09-01T08:23:39Z</time>
      </trkpt>
      <trkpt lat="43.0561" lon="-0.46441">
        <ele>903.295898</ele>
        <time>2013-09-01T08:23:57Z</time>
      </trkpt>
      <trkpt lat="43.05588" lon="-0.4646">
        <ele>904.257324</ele>
        <time>2013-09-01T08:24:21Z</time>
      </trkpt>
      <trkpt lat="43.05568" lon="-0.46474">
        <ele>904.737793</ele>
        <time>2013-09-01T08:24:40Z</time>
      </trkpt>
      <trkpt lat="43.05544" lon="-0.46482">
        <ele>906.179688</ele>
        <time>2013-09-01T08:25:01Z</time>
      </trkpt>
      <trkpt lat="43.05528" lon="-0.46485">
        <ele>906.6604</ele>
        <time>2013-09-01T08:25:17Z</time>
      </trkpt>
      <trkpt lat="43.05506" lon="-0.46489">
        <ele>908.583252</ele>
        <time>2013-09-01T08:25:38Z</time>
      </trkpt>
      <trkpt lat="43.05482" lon="-0.46501">
        <ele>910.986572</ele>
        <time>2013-09-01T08:26:01Z</time>
      </trkpt>
      <trkpt lat="43.05465" lon="-0.46516">
        <ele>912.90918</ele>
        <time>2013-09-01T08:26:21Z</time>
      </trkpt>
      <trkpt lat="43.05451" lon="-0.46528">
        <ele>914.831787</ele>
        <time>2013-09-01T08:26:37Z</time>
      </trkpt>
      <trkpt lat="43.0543" lon="-0.46544">
        <ele>915.793213</ele>
        <time>2013-09-01T08:26:57Z</time>
      </trkpt>
      <trkpt lat="43.05412" lon="-0.4655">
        <ele>916.273682</ele>
        <time>2013-09-01T08:27:13Z</time>
      </trkpt>
      <trkpt lat="43.05393" lon="-0.46551">
        <ele>916.754395</ele>
        <time>2013-09-01T08:27:31Z</time>
      </trkpt>
      <trkpt lat="43.05367" lon="-0.46549">
        <ele>918.196289</ele>
        <time>2013-09-01T08:27:55Z</time>
      </trkpt>
      <trkpt lat="43.05341" lon="-0.46544">
        <ele>919.638428</ele>
        <time>2013-09-01T08:28:18Z</time>
      </trkpt>
      <trkpt lat="43.05319" lon="-0.46544">
        <ele>921.560791</ele>
        <time>2013-09-01T08:28:37Z</time>
      </trkpt>
      <trkpt lat="43.05294" lon="-0.46539">
        <ele>923.483643</ele>
        <time>2013-09-01T08:28:59Z</time>
      </trkpt>
      <trkpt lat="43.0527" lon="-0.46535">
        <ele>924.925781</ele>
        <time>2013-09-01T08:29:22Z</time>
      </trkpt>
      <trkpt lat="43.0525" lon="-0.46532">
        <ele>927.329102</ele>
        <time>2013-09-01T08:29:41Z</time>
      </trkpt>
      <trkpt lat="43.05234" lon="-0.46529">
        <ele>929.732178</ele>
        <time>2013-09-01T08:29:58Z</time>
      </trkpt>
      <trkpt lat="43.05223" lon="-0.46523">
        <ele>931.654785</ele>
        <time>2013-09-01T08:30:12Z</time>
      </trkpt>
      <trkpt lat="43.05209" lon="-0.46518">
        <ele>935.019531</ele>
        <time>2013-09-01T08:30:28Z</time>
      </trkpt>
      <trkpt lat="43.05193" lon="-0.46513">
        <ele>936.461426</ele>
        <time>2013-09-01T08:30:46Z</time>
      </trkpt>
      <trkpt lat="43.05181" lon="-0.46512">
        <ele>938.864746</ele>
        <time>2013-09-01T08:31:01Z</time>
      </trkpt>
      <trkpt lat="43.05172" lon="-0.46511">
        <ele>939.825928</ele>
        <time>2013-09-01T08:31:15Z</time>
      </trkpt>
      <trkpt lat="43.05164" lon="-0.46505">
        <ele>942.710205</ele>
        <time>2013-09-01T08:31:27Z</time>
      </trkpt>
      <trkpt lat="43.05157" lon="-0.46503">
        <ele>946.074707</ele>
        <time>2013-09-01T08:31:36Z</time>
      </trkpt>
      <trkpt lat="43.05146" lon="-0.46504">
        <ele>947.035889</ele>
        <time>2013-09-01T08:31:53Z</time>
      </trkpt>
      <trkpt lat="43.05139" lon="-0.46504">
        <ele>950.400635</ele>
        <time>2013-09-01T08:32:04Z</time>
      </trkpt>
      <trkpt lat="43.05131" lon="-0.46501">
        <ele>953.284424</ele>
        <time>2013-09-01T08:32:17Z</time>
      </trkpt>
      <trkpt lat="43.05126" lon="-0.465">
        <ele>956.168457</ele>
        <time>2013-09-01T08:32:27Z</time>
      </trkpt>
      <trkpt lat="43.05115" lon="-0.46499">
        <ele>957.610596</ele>
        <time>2013-09-01T08:32:41Z</time>
      </trkpt>
      <trkpt lat="43.05107" lon="-0.46497">
        <ele>960.975098</ele>
        <time>2013-09-01T08:32:54Z</time>
      </trkpt>
      <trkpt lat="43.05095" lon="-0.46493">
        <ele>962.897705</ele>
        <time>2013-09-01T08:33:08Z</time>
      </trkpt>
      <trkpt lat="43.05089" lon="-0.46489">
        <ele>965.781738</ele>
        <time>2013-09-01T08:33:17Z</time>
      </trkpt>
      <trkpt lat="43.05081" lon="-0.46484">
        <ele>969.626953</ele>
        <time>2013-09-01T08:33:33Z</time>
      </trkpt>
      <trkpt lat="43.05081" lon="-0.46483">
        <ele>969.626953</ele>
        <time>2013-09-01T08:33:34Z</time>
      </trkpt>
      <trkpt lat="43.05074" lon="-0.46473">
        <ele>970.588135</ele>
        <time>2013-09-01T08:33:47Z</time>
      </trkpt>
      <trkpt lat="43.05066" lon="-0.46462">
        <ele>973.472412</ele>
        <time>2013-09-01T08:34:01Z</time>
      </trkpt>
      <trkpt lat="43.05059" lon="-0.46458">
        <ele>976.356201</ele>
        <time>2013-09-01T08:34:13Z</time>
      </trkpt>
      <trkpt lat="43.0505" lon="-0.46453">
        <ele>979.23999</ele>
        <time>2013-09-01T08:34:29Z</time>
      </trkpt>
      <trkpt lat="43.0504" lon="-0.4645">
        <ele>982.604736</ele>
        <time>2013-09-01T08:34:43Z</time>
      </trkpt>
      <trkpt lat="43.05035" lon="-0.46457">
        <ele>985.488525</ele>
        <time>2013-09-01T08:34:59Z</time>
      </trkpt>
      <trkpt lat="43.05035" lon="-0.46472">
        <ele>986.93042</ele>
        <time>2013-09-01T08:35:16Z</time>
      </trkpt>
      <trkpt lat="43.05033" lon="-0.46489">
        <ele>988.853516</ele>
        <time>2013-09-01T08:35:32Z</time>
      </trkpt>
      <trkpt lat="43.05029" lon="-0.46501">
        <ele>990.29541</ele>
        <time>2013-09-01T08:35:47Z</time>
      </trkpt>
      <trkpt lat="43.05027" lon="-0.46515">
        <ele>991.737305</ele>
        <time>2013-09-01T08:36:01Z</time>
      </trkpt>
      <trkpt lat="43.05025" lon="-0.46527">
        <ele>994.621094</ele>
        <time>2013-09-01T08:36:13Z</time>
      </trkpt>
      <trkpt lat="43.05022" lon="-0.46535">
        <ele>995.58252</ele>
        <time>2013-09-01T08:36:26Z</time>
      </trkpt>
      <trkpt lat="43.05019" lon="-0.46547">
        <ele>997.98584</ele>
        <time>2013-09-01T08:36:42Z</time>
      </trkpt>
      <trkpt lat="43.05016" lon="-0.46561">
        <ele>1000.869629</ele>
        <time>2013-09-01T08:36:56Z</time>
      </trkpt>
      <trkpt lat="43.05006" lon="-0.46574">
        <ele>1003.272949</ele>
        <time>2013-09-01T08:37:12Z</time>
      </trkpt>
      <trkpt lat="43.04999" lon="-0.46582">
        <ele>1003.753662</ele>
        <time>2013-09-01T08:37:24Z</time>
      </trkpt>
      <trkpt lat="43.04993" lon="-0.46593">
        <ele>1006.156982</ele>
        <time>2013-09-01T08:37:40Z</time>
      </trkpt>
      <trkpt lat="43.0499" lon="-0.46603">
        <ele>1007.118408</ele>
        <time>2013-09-01T08:37:52Z</time>
      </trkpt>
      <trkpt lat="43.0499" lon="-0.46619">
        <ele>1008.560303</ele>
        <time>2013-09-01T08:38:10Z</time>
      </trkpt>
      <trkpt lat="43.04991" lon="-0.46635">
        <ele>1010.48291</ele>
        <time>2013-09-01T08:38:26Z</time>
      </trkpt>
      <trkpt lat="43.04992" lon="-0.46649">
        <ele>1013.847412</ele>
        <time>2013-09-01T08:38:42Z</time>
      </trkpt>
      <trkpt lat="43.04989" lon="-0.46661">
        <ele>1014.808838</ele>
        <time>2013-09-01T08:38:56Z</time>
      </trkpt>
      <trkpt lat="43.04979" lon="-0.46673">
        <ele>1015.770264</ele>
        <time>2013-09-01T08:39:12Z</time>
      </trkpt>
      <trkpt lat="43.04964" lon="-0.46686">
        <ele>1018.17334</ele>
        <time>2013-09-01T08:39:30Z</time>
      </trkpt>
      <trkpt lat="43.04953" lon="-0.4669">
        <ele>1019.134766</ele>
        <time>2013-09-01T08:39:45Z</time>
      </trkpt>
      <trkpt lat="43.04945" lon="-0.46693">
        <ele>1020.096191</ele>
        <time>2013-09-01T08:39:55Z</time>
      </trkpt>
      <trkpt lat="43.04932" lon="-0.46699">
        <ele>1021.538086</ele>
        <time>2013-09-01T08:40:10Z</time>
      </trkpt>
      <trkpt lat="43.04923" lon="-0.46706">
        <ele>1022.980225</ele>
        <time>2013-09-01T08:40:24Z</time>
      </trkpt>
      <trkpt lat="43.04914" lon="-0.46711">
        <ele>1022.980225</ele>
        <time>2013-09-01T08:40:37Z</time>
      </trkpt>
      <trkpt lat="43.04898" lon="-0.46721">
        <ele>1022.980225</ele>
        <time>2013-09-01T08:40:56Z</time>
      </trkpt>
      <trkpt lat="43.04887" lon="-0.46734">
        <ele>1025.864014</ele>
        <time>2013-09-01T08:41:14Z</time>
      </trkpt>
      <trkpt lat="43.04878" lon="-0.46743">
        <ele>1027.306152</ele>
        <time>2013-09-01T08:41:29Z</time>
      </trkpt>
      <trkpt lat="43.0487" lon="-0.46751">
        <ele>1029.228516</ele>
        <time>2013-09-01T08:41:44Z</time>
      </trkpt>
      <trkpt lat="43.04862" lon="-0.46759">
        <ele>1030.189941</ele>
        <time>2013-09-01T08:42:00Z</time>
      </trkpt>
      <trkpt lat="43.04851" lon="-0.46764">
        <ele>1031.631836</ele>
        <time>2013-09-01T08:42:17Z</time>
      </trkpt>
      <trkpt lat="43.04835" lon="-0.46775">
        <ele>1032.593262</ele>
        <time>2013-09-01T08:42:34Z</time>
      </trkpt>
      <trkpt lat="43.04827" lon="-0.4678">
        <ele>1033.554443</ele>
        <time>2013-09-01T08:42:48Z</time>
      </trkpt>
      <trkpt lat="43.04813" lon="-0.46783">
        <ele>1035.957764</ele>
        <time>2013-09-01T08:43:04Z</time>
      </trkpt>
      <trkpt lat="43.04802" lon="-0.46784">
        <ele>1036.919189</ele>
        <time>2013-09-01T08:43:17Z</time>
      </trkpt>
      <trkpt lat="43.04794" lon="-0.46787">
        <ele>1037.880615</ele>
        <time>2013-09-01T08:43:29Z</time>
      </trkpt>
      <trkpt lat="43.04783" lon="-0.46788">
        <ele>1038.842041</ele>
        <time>2013-09-01T08:43:42Z</time>
      </trkpt>
      <trkpt lat="43.04775" lon="-0.46785">
        <ele>1040.283936</ele>
        <time>2013-09-01T08:43:53Z</time>
      </trkpt>
      <trkpt lat="43.04765" lon="-0.46786">
        <ele>1041.72583</ele>
        <time>2013-09-01T08:44:05Z</time>
      </trkpt>
      <trkpt lat="43.04755" lon="-0.4678">
        <ele>1044.12915</ele>
        <time>2013-09-01T08:44:20Z</time>
      </trkpt>
      <trkpt lat="43.04746" lon="-0.46773">
        <ele>1046.532471</ele>
        <time>2013-09-01T08:44:33Z</time>
      </trkpt>
      <trkpt lat="43.04739" lon="-0.46771">
        <ele>1049.41626</ele>
        <time>2013-09-01T08:44:49Z</time>
      </trkpt>
      <trkpt lat="43.04733" lon="-0.46768">
        <ele>1051.81958</ele>
        <time>2013-09-01T08:45:01Z</time>
      </trkpt>
      <trkpt lat="43.04725" lon="-0.46765">
        <ele>1052.300293</ele>
        <time>2013-09-01T08:45:13Z</time>
      </trkpt>
      <trkpt lat="43.04714" lon="-0.4676">
        <ele>1054.703613</ele>
        <time>2013-09-01T08:45:28Z</time>
      </trkpt>
      <trkpt lat="43.04703" lon="-0.46755">
        <ele>1057.106934</ele>
        <time>2013-09-01T08:45:43Z</time>
      </trkpt>
      <trkpt lat="43.04695" lon="-0.46753">
        <ele>1060.471436</ele>
        <time>2013-09-01T08:45:55Z</time>
      </trkpt>
      <trkpt lat="43.04687" lon="-0.46752">
        <ele>1060.952148</ele>
        <time>2013-09-01T08:46:07Z</time>
      </trkpt>
      <trkpt lat="43.04683" lon="-0.46752">
        <ele>1063.355469</ele>
        <time>2013-09-01T08:46:15Z</time>
      </trkpt>
      <trkpt lat="43.04672" lon="-0.46749">
        <ele>1065.278076</ele>
        <time>2013-09-01T08:46:29Z</time>
      </trkpt>
      <trkpt lat="43.04659" lon="-0.46745">
        <ele>1066.719971</ele>
        <time>2013-09-01T08:46:43Z</time>
      </trkpt>
      <trkpt lat="43.04649" lon="-0.46746">
        <ele>1069.604248</ele>
        <time>2013-09-01T08:46:55Z</time>
      </trkpt>
      <trkpt lat="43.04643" lon="-0.46753">
        <ele>1071.046143</ele>
        <time>2013-09-01T08:47:08Z</time>
      </trkpt>
      <trkpt lat="43.04631" lon="-0.46759">
        <ele>1071.046143</ele>
        <time>2013-09-01T08:47:21Z</time>
      </trkpt>
      <trkpt lat="43.04625" lon="-0.46764">
        <ele>1070.56543</ele>
        <time>2013-09-01T08:47:26Z</time>
      </trkpt>
      <trkpt lat="43.04615" lon="-0.46776">
        <ele>1072.488037</ele>
        <time>2013-09-01T08:47:41Z</time>
      </trkpt>
      <trkpt lat="43.04603" lon="-0.46781">
        <ele>1073.929932</ele>
        <time>2013-09-01T08:47:53Z</time>
      </trkpt>
      <trkpt lat="43.04589" lon="-0.4678">
        <ele>1076.333252</ele>
        <time>2013-09-01T08:48:09Z</time>
      </trkpt>
      <trkpt lat="43.04581" lon="-0.46784">
        <ele>1079.217041</ele>
        <time>2013-09-01T08:48:22Z</time>
      </trkpt>
      <trkpt lat="43.04569" lon="-0.46788">
        <ele>1082.101074</ele>
        <time>2013-09-01T08:48:39Z</time>
      </trkpt>
      <trkpt lat="43.0456" lon="-0.46789">
        <ele>1084.023926</ele>
        <time>2013-09-01T08:48:55Z</time>
      </trkpt>
      <trkpt lat="43.04559" lon="-0.4679">
        <ele>1082.581787</ele>
        <time>2013-09-01T08:49:04Z</time>
      </trkpt>
      <trkpt lat="43.04559" lon="-0.46791">
        <ele>1082.581787</ele>
        <time>2013-09-01T08:49:45Z</time>
      </trkpt>
      <trkpt lat="43.04558" lon="-0.46788">
        <ele>1084.023926</ele>
        <time>2013-09-01T08:50:22Z</time>
      </trkpt>
      <trkpt lat="43.04557" lon="-0.46789">
        <ele>1084.023926</ele>
        <time>2013-09-01T08:51:16Z</time>
      </trkpt>
      <trkpt lat="43.04558" lon="-0.46787">
        <ele>1084.023926</ele>
        <time>2013-09-01T08:51:53Z</time>
      </trkpt>
      <trkpt lat="43.04556" lon="-0.46788">
        <ele>1083.542969</ele>
        <time>2013-09-01T08:52:42Z</time>
      </trkpt>
      <trkpt lat="43.04555" lon="-0.46791">
        <ele>1084.023926</ele>
        <time>2013-09-01T08:53:07Z</time>
      </trkpt>
      <trkpt lat="43.04548" lon="-0.46801">
        <ele>1084.504639</ele>
        <time>2013-09-01T08:53:23Z</time>
      </trkpt>
      <trkpt lat="43.04542" lon="-0.46808">
        <ele>1085.946533</ele>
        <time>2013-09-01T08:53:39Z</time>
      </trkpt>
      <trkpt lat="43.04539" lon="-0.46817">
        <ele>1086.427246</ele>
        <time>2013-09-01T08:53:53Z</time>
      </trkpt>
      <trkpt lat="43.04538" lon="-0.46819">
        <ele>1086.427246</ele>
        <time>2013-09-01T08:53:55Z</time>
      </trkpt>
      <trkpt lat="43.04535" lon="-0.46848">
        <ele>1086.907715</ele>
        <time>2013-09-01T08:54:17Z</time>
      </trkpt>
      <trkpt lat="43.04532" lon="-0.46877">
        <ele>1089.311035</ele>
        <time>2013-09-01T08:54:39Z</time>
      </trkpt>
      <trkpt lat="43.04525" lon="-0.46903">
        <ele>1090.272461</ele>
        <time>2013-09-01T08:54:59Z</time>
      </trkpt>
      <trkpt lat="43.04514" lon="-0.46921">
        <ele>1091.233643</ele>
        <time>2013-09-01T08:55:17Z</time>
      </trkpt>
      <trkpt lat="43.045" lon="-0.46941">
        <ele>1092.195068</ele>
        <time>2013-09-01T08:55:37Z</time>
      </trkpt>
      <trkpt lat="43.04495" lon="-0.46969">
        <ele>1093.15625</ele>
        <time>2013-09-01T08:55:57Z</time>
      </trkpt>
      <trkpt lat="43.04494" lon="-0.47">
        <ele>1095.55957</ele>
        <time>2013-09-01T08:56:19Z</time>
      </trkpt>
      <trkpt lat="43.04487" lon="-0.47027">
        <ele>1097.001465</ele>
        <time>2013-09-01T08:56:39Z</time>
      </trkpt>
      <trkpt lat="43.04476" lon="-0.47049">
        <ele>1098.924072</ele>
        <time>2013-09-01T08:56:59Z</time>
      </trkpt>
      <trkpt lat="43.04464" lon="-0.47076">
        <ele>1100.846924</ele>
        <time>2013-09-01T08:57:21Z</time>
      </trkpt>
      <trkpt lat="43.04464" lon="-0.47112">
        <ele>1102.769531</ele>
        <time>2013-09-01T08:57:46Z</time>
      </trkpt>
      <trkpt lat="43.04473" lon="-0.47139">
        <ele>1104.21167</ele>
        <time>2013-09-01T08:58:07Z</time>
      </trkpt>
      <trkpt lat="43.04483" lon="-0.47158">
        <ele>1105.653564</ele>
        <time>2013-09-01T08:58:24Z</time>
      </trkpt>
      <trkpt lat="43.04496" lon="-0.47168">
        <ele>1107.095459</ele>
        <time>2013-09-01T08:58:40Z</time>
      </trkpt>
      <trkpt lat="43.04505" lon="-0.47185">
        <ele>1107.095459</ele>
        <time>2013-09-01T08:58:53Z</time>
      </trkpt>
      <trkpt lat="43.04505" lon="-0.47214">
        <ele>1109.498779</ele>
        <time>2013-09-01T08:59:11Z</time>
      </trkpt>
      <trkpt lat="43.04492" lon="-0.47234">
        <ele>1110.940674</ele>
        <time>2013-09-01T08:59:29Z</time>
      </trkpt>
      <trkpt lat="43.0447" lon="-0.47247">
        <ele>1112.863281</ele>
        <time>2013-09-01T08:59:50Z</time>
      </trkpt>
      <trkpt lat="43.04458" lon="-0.47272">
        <ele>1114.785889</ele>
        <time>2013-09-01T09:00:10Z</time>
      </trkpt>
      <trkpt lat="43.04442" lon="-0.47292">
        <ele>1116.70874</ele>
        <time>2013-09-01T09:00:30Z</time>
      </trkpt>
      <trkpt lat="43.04433" lon="-0.47313">
        <ele>1118.150635</ele>
        <time>2013-09-01T09:00:49Z</time>
      </trkpt>
      <trkpt lat="43.04424" lon="-0.47315">
        <ele>1117.669922</ele>
        <time>2013-09-01T09:01:01Z</time>
      </trkpt>
      <trkpt lat="43.04416" lon="-0.47319">
        <ele>1116.228027</ele>
        <time>2013-09-01T09:01:18Z</time>
      </trkpt>
      <trkpt lat="43.04409" lon="-0.47329">
        <ele>1117.189453</ele>
        <time>2013-09-01T09:01:32Z</time>
      </trkpt>
      <trkpt lat="43.04402" lon="-0.4734">
        <ele>1119.112061</ele>
        <time>2013-09-01T09:01:47Z</time>
      </trkpt>
      <trkpt lat="43.04394" lon="-0.47349">
        <ele>1121.99585</ele>
        <time>2013-09-01T09:02:02Z</time>
      </trkpt>
      <trkpt lat="43.04384" lon="-0.47359">
        <ele>1123.918457</ele>
        <time>2013-09-01T09:02:19Z</time>
      </trkpt>
      <trkpt lat="43.04381" lon="-0.47368">
        <ele>1127.283203</ele>
        <time>2013-09-01T09:02:29Z</time>
      </trkpt>
      <trkpt lat="43.04378" lon="-0.47384">
        <ele>1130.166992</ele>
        <time>2013-09-01T09:02:46Z</time>
      </trkpt>
      <trkpt lat="43.04385" lon="-0.47398">
        <ele>1132.089844</ele>
        <time>2013-09-01T09:03:03Z</time>
      </trkpt>
      <trkpt lat="43.04389" lon="-0.47407">
        <ele>1134.973877</ele>
        <time>2013-09-01T09:03:13Z</time>
      </trkpt>
      <trkpt lat="43.04387" lon="-0.47417">
        <ele>1137.857666</ele>
        <time>2013-09-01T09:03:27Z</time>
      </trkpt>
      <trkpt lat="43.04374" lon="-0.47419">
        <ele>1139.780273</ele>
        <time>2013-09-01T09:03:43Z</time>
      </trkpt>
      <trkpt lat="43.04369" lon="-0.47437">
        <ele>1141.222168</ele>
        <time>2013-09-01T09:04:01Z</time>
      </trkpt>
      <trkpt lat="43.04369" lon="-0.47448">
        <ele>1143.625488</ele>
        <time>2013-09-01T09:04:16Z</time>
      </trkpt>
      <trkpt lat="43.04368" lon="-0.47454">
        <ele>1144.106201</ele>
        <time>2013-09-01T09:04:31Z</time>
      </trkpt>
      <trkpt lat="43.04372" lon="-0.47467">
        <ele>1146.509521</ele>
        <time>2013-09-01T09:04:47Z</time>
      </trkpt>
      <trkpt lat="43.04373" lon="-0.47473">
        <ele>1149.393555</ele>
        <time>2013-09-01T09:04:55Z</time>
      </trkpt>
      <trkpt lat="43.04376" lon="-0.47478">
        <ele>1151.796875</ele>
        <time>2013-09-01T09:05:09Z</time>
      </trkpt>
      <trkpt lat="43.04382" lon="-0.47485">
        <ele>1154.680664</ele>
        <time>2013-09-01T09:05:23Z</time>
      </trkpt>
      <trkpt lat="43.04386" lon="-0.47494">
        <ele>1156.603271</ele>
        <time>2013-09-01T09:05:37Z</time>
      </trkpt>
      <trkpt lat="43.04386" lon="-0.47496">
        <ele>1158.04541</ele>
        <time>2013-09-01T09:05:40Z</time>
      </trkpt>
      <trkpt lat="43.04387" lon="-0.47503">
        <ele>1160.448486</ele>
        <time>2013-09-01T09:05:53Z</time>
      </trkpt>
      <trkpt lat="43.04389" lon="-0.47509">
        <ele>1163.33252</ele>
        <time>2013-09-01T09:06:05Z</time>
      </trkpt>
      <trkpt lat="43.04386" lon="-0.47515">
        <ele>1165.736084</ele>
        <time>2013-09-01T09:06:21Z</time>
      </trkpt>
      <trkpt lat="43.04386" lon="-0.47522">
        <ele>1168.619873</ele>
        <time>2013-09-01T09:06:36Z</time>
      </trkpt>
      <trkpt lat="43.04384" lon="-0.47524">
        <ele>1169.100586</ele>
        <time>2013-09-01T09:07:06Z</time>
      </trkpt>
      <trkpt lat="43.04383" lon="-0.47535">
        <ele>1171.503662</ele>
        <time>2013-09-01T09:07:21Z</time>
      </trkpt>
      <trkpt lat="43.04385" lon="-0.47548">
        <ele>1174.387695</ele>
        <time>2013-09-01T09:07:36Z</time>
      </trkpt>
      <trkpt lat="43.04384" lon="-0.47549">
        <ele>1174.387695</ele>
        <time>2013-09-01T09:07:37Z</time>
      </trkpt>
      <trkpt lat="43.04384" lon="-0.47567">
        <ele>1177.752197</ele>
        <time>2013-09-01T09:07:54Z</time>
      </trkpt>
      <trkpt lat="43.04384" lon="-0.47572">
        <ele>1179.674805</ele>
        <time>2013-09-01T09:07:59Z</time>
      </trkpt>
      <trkpt lat="43.04384" lon="-0.47594">
        <ele>1180.636475</ele>
        <time>2013-09-01T09:08:17Z</time>
      </trkpt>
      <trkpt lat="43.04388" lon="-0.47603">
        <ele>1184.000977</ele>
        <time>2013-09-01T09:08:27Z</time>
      </trkpt>
      <trkpt lat="43.04395" lon="-0.47615">
        <ele>1184.962402</ele>
        <time>2013-09-01T09:08:40Z</time>
      </trkpt>
      <trkpt lat="43.04399" lon="-0.47628">
        <ele>1187.846191</ele>
        <time>2013-09-01T09:08:53Z</time>
      </trkpt>
      <trkpt lat="43.04399" lon="-0.47651">
        <ele>1190.249512</ele>
        <time>2013-09-01T09:09:13Z</time>
      </trkpt>
      <trkpt lat="43.04396" lon="-0.47669">
        <ele>1191.210693</ele>
        <time>2013-09-01T09:09:29Z</time>
      </trkpt>
      <trkpt lat="43.04397" lon="-0.47689">
        <ele>1192.652832</ele>
        <time>2013-09-01T09:09:46Z</time>
      </trkpt>
      <trkpt lat="43.04401" lon="-0.4771">
        <ele>1196.017578</ele>
        <time>2013-09-01T09:10:05Z</time>
      </trkpt>
      <trkpt lat="43.04405" lon="-0.47734">
        <ele>1198.901367</ele>
        <time>2013-09-01T09:10:26Z</time>
      </trkpt>
      <trkpt lat="43.04407" lon="-0.47753">
        <ele>1200.823975</ele>
        <time>2013-09-01T09:10:44Z</time>
      </trkpt>
      <trkpt lat="43.04409" lon="-0.47764">
        <ele>1204.188721</ele>
        <time>2013-09-01T09:10:54Z</time>
      </trkpt>
      <trkpt lat="43.04411" lon="-0.4778">
        <ele>1206.591797</ele>
        <time>2013-09-01T09:11:10Z</time>
      </trkpt>
      <trkpt lat="43.04415" lon="-0.47798">
        <ele>1208.995117</ele>
        <time>2013-09-01T09:11:27Z</time>
      </trkpt>
      <trkpt lat="43.04415" lon="-0.47818">
        <ele>1210.437012</ele>
        <time>2013-09-01T09:11:44Z</time>
      </trkpt>
      <trkpt lat="43.04418" lon="-0.4784">
        <ele>1214.282471</ele>
        <time>2013-09-01T09:12:02Z</time>
      </trkpt>
      <trkpt lat="43.0442" lon="-0.47859">
        <ele>1215.243896</ele>
        <time>2013-09-01T09:12:18Z</time>
      </trkpt>
      <trkpt lat="43.04423" lon="-0.47883">
        <ele>1218.608398</ele>
        <time>2013-09-01T09:12:38Z</time>
      </trkpt>
      <trkpt lat="43.04429" lon="-0.47896">
        <ele>1221.492188</ele>
        <time>2013-09-01T09:12:53Z</time>
      </trkpt>
      <trkpt lat="43.04436" lon="-0.47912">
        <ele>1222.453613</ele>
        <time>2013-09-01T09:13:09Z</time>
      </trkpt>
      <trkpt lat="43.04435" lon="-0.4792">
        <ele>1224.376221</ele>
        <time>2013-09-01T09:13:21Z</time>
      </trkpt>
      <trkpt lat="43.04434" lon="-0.47925">
        <ele>1224.376221</ele>
        <time>2013-09-01T09:13:36Z</time>
      </trkpt>
      <trkpt lat="43.04432" lon="-0.47919">
        <ele>1224.376221</ele>
        <time>2013-09-01T09:13:59Z</time>
      </trkpt>
      <trkpt lat="43.04433" lon="-0.4792">
        <ele>1224.856934</ele>
        <time>2013-09-01T09:14:23Z</time>
      </trkpt>
      <trkpt lat="43.04438" lon="-0.47933">
        <ele>1225.337402</ele>
        <time>2013-09-01T09:14:40Z</time>
      </trkpt>
      <trkpt lat="43.04444" lon="-0.47955">
        <ele>1225.818115</ele>
        <time>2013-09-01T09:14:58Z</time>
      </trkpt>
      <trkpt lat="43.04448" lon="-0.47965">
        <ele>1225.818115</ele>
        <time>2013-09-01T09:15:08Z</time>
      </trkpt>
      <trkpt lat="43.04452" lon="-0.47987">
        <ele>1226.298828</ele>
        <time>2013-09-01T09:15:26Z</time>
      </trkpt>
      <trkpt lat="43.04453" lon="-0.48004">
        <ele>1228.702393</ele>
        <time>2013-09-01T09:15:41Z</time>
      </trkpt>
      <trkpt lat="43.04455" lon="-0.48017">
        <ele>1230.144287</ele>
        <time>2013-09-01T09:15:53Z</time>
      </trkpt>
      <trkpt lat="43.04454" lon="-0.48022">
        <ele>1231.105713</ele>
        <time>2013-09-01T09:15:57Z</time>
      </trkpt>
      <trkpt lat="43.04441" lon="-0.4804">
        <ele>1231.105713</ele>
        <time>2013-09-01T09:16:17Z</time>
      </trkpt>
      <trkpt lat="43.04437" lon="-0.4805">
        <ele>1233.028076</ele>
        <time>2013-09-01T09:16:27Z</time>
      </trkpt>
      <trkpt lat="43.04432" lon="-0.48066">
        <ele>1234.470215</ele>
        <time>2013-09-01T09:16:43Z</time>
      </trkpt>
      <trkpt lat="43.04427" lon="-0.48076">
        <ele>1237.834717</ele>
        <time>2013-09-01T09:16:55Z</time>
      </trkpt>
      <trkpt lat="43.04418" lon="-0.48073">
        <ele>1238.796143</ele>
        <time>2013-09-01T09:17:09Z</time>
      </trkpt>
      <trkpt lat="43.0441" lon="-0.4806">
        <ele>1240.238037</ele>
        <time>2013-09-01T09:17:27Z</time>
      </trkpt>
      <trkpt lat="43.04405" lon="-0.4807">
        <ele>1242.160645</ele>
        <time>2013-09-01T09:17:42Z</time>
      </trkpt>
      <trkpt lat="43.04405" lon="-0.48093">
        <ele>1244.563965</ele>
        <time>2013-09-01T09:18:03Z</time>
      </trkpt>
      <trkpt lat="43.04401" lon="-0.48117">
        <ele>1247.928711</ele>
        <time>2013-09-01T09:18:24Z</time>
      </trkpt>
      <trkpt lat="43.04399" lon="-0.48135">
        <ele>1250.332031</ele>
        <time>2013-09-01T09:18:41Z</time>
      </trkpt>
      <trkpt lat="43.04412" lon="-0.48135">
        <ele>1251.773926</ele>
        <time>2013-09-01T09:18:58Z</time>
      </trkpt>
      <trkpt lat="43.04427" lon="-0.4812">
        <ele>1254.177246</ele>
        <time>2013-09-01T09:19:18Z</time>
      </trkpt>
      <trkpt lat="43.0444" lon="-0.48109">
        <ele>1255.619141</ele>
        <time>2013-09-01T09:19:35Z</time>
      </trkpt>
      <trkpt lat="43.04445" lon="-0.48105">
        <ele>1256.580322</ele>
        <time>2013-09-01T09:19:41Z</time>
      </trkpt>
      <trkpt lat="43.04453" lon="-0.48099">
        <ele>1258.50293</ele>
        <time>2013-09-01T09:19:51Z</time>
      </trkpt>
      <trkpt lat="43.04472" lon="-0.48088">
        <ele>1259.464355</ele>
        <time>2013-09-01T09:20:12Z</time>
      </trkpt>
      <trkpt lat="43.04496" lon="-0.48079">
        <ele>1260.425781</ele>
        <time>2013-09-01T09:20:35Z</time>
      </trkpt>
      <trkpt lat="43.04514" lon="-0.48069">
        <ele>1262.829102</ele>
        <time>2013-09-01T09:20:54Z</time>
      </trkpt>
      <trkpt lat="43.04524" lon="-0.48082">
        <ele>1265.232422</ele>
        <time>2013-09-01T09:21:10Z</time>
      </trkpt>
      <trkpt lat="43.04515" lon="-0.48101">
        <ele>1269.077637</ele>
        <time>2013-09-01T09:21:26Z</time>
      </trkpt>
      <trkpt lat="43.04492" lon="-0.48118">
        <ele>1268.596924</ele>
        <time>2013-09-01T09:21:49Z</time>
      </trkpt>
      <trkpt lat="43.04478" lon="-0.48139">
        <ele>1271.000244</ele>
        <time>2013-09-01T09:22:10Z</time>
      </trkpt>
      <trkpt lat="43.04481" lon="-0.48151">
        <ele>1271.000244</ele>
        <time>2013-09-01T09:22:21Z</time>
      </trkpt>
      <trkpt lat="43.04482" lon="-0.48167">
        <ele>1274.364746</ele>
        <time>2013-09-01T09:22:35Z</time>
      </trkpt>
      <trkpt lat="43.04482" lon="-0.48168">
        <ele>1274.364746</ele>
        <time>2013-09-01T09:22:36Z</time>
      </trkpt>
      <trkpt lat="43.0448" lon="-0.48184">
        <ele>1277.729492</ele>
        <time>2013-09-01T09:22:53Z</time>
      </trkpt>
      <trkpt lat="43.04479" lon="-0.482">
        <ele>1279.6521</ele>
        <time>2013-09-01T09:23:10Z</time>
      </trkpt>
      <trkpt lat="43.04481" lon="-0.48218">
        <ele>1281.574707</ele>
        <time>2013-09-01T09:23:26Z</time>
      </trkpt>
      <trkpt lat="43.04481" lon="-0.48235">
        <ele>1284.45874</ele>
        <time>2013-09-01T09:23:39Z</time>
      </trkpt>
      <trkpt lat="43.04482" lon="-0.48247">
        <ele>1285.419922</ele>
        <time>2013-09-01T09:23:54Z</time>
      </trkpt>
      <trkpt lat="43.04482" lon="-0.48249">
        <ele>1285.419922</ele>
        <time>2013-09-01T09:23:55Z</time>
      </trkpt>
      <trkpt lat="43.04496" lon="-0.48263">
        <ele>1287.823242</ele>
        <time>2013-09-01T09:24:12Z</time>
      </trkpt>
      <trkpt lat="43.04505" lon="-0.48282">
        <ele>1289.265137</ele>
        <time>2013-09-01T09:24:31Z</time>
      </trkpt>
      <trkpt lat="43.045" lon="-0.48302">
        <ele>1290.707031</ele>
        <time>2013-09-01T09:24:49Z</time>
      </trkpt>
      <trkpt lat="43.04494" lon="-0.4832">
        <ele>1293.110596</ele>
        <time>2013-09-01T09:25:09Z</time>
      </trkpt>
      <trkpt lat="43.04491" lon="-0.4833">
        <ele>1295.033203</ele>
        <time>2013-09-01T09:25:31Z</time>
      </trkpt>
      <trkpt lat="43.04488" lon="-0.48341">
        <ele>1295.994629</ele>
        <time>2013-09-01T09:25:45Z</time>
      </trkpt>
      <trkpt lat="43.04482" lon="-0.4836">
        <ele>1297.436523</ele>
        <time>2013-09-01T09:26:03Z</time>
      </trkpt>
      <trkpt lat="43.0448" lon="-0.48365">
        <ele>1297.917236</ele>
        <time>2013-09-01T09:26:07Z</time>
      </trkpt>
      <trkpt lat="43.04475" lon="-0.4839">
        <ele>1300.801025</ele>
        <time>2013-09-01T09:26:28Z</time>
      </trkpt>
      <trkpt lat="43.04475" lon="-0.48404">
        <ele>1300.801025</ele>
        <time>2013-09-01T09:26:40Z</time>
      </trkpt>
      <trkpt lat="43.04476" lon="-0.48439">
        <ele>1303.204346</ele>
        <time>2013-09-01T09:27:05Z</time>
      </trkpt>
      <trkpt lat="43.04477" lon="-0.48468">
        <ele>1304.64624</ele>
        <time>2013-09-01T09:27:27Z</time>
      </trkpt>
      <trkpt lat="43.04478" lon="-0.48488">
        <ele>1308.01123</ele>
        <time>2013-09-01T09:27:43Z</time>
      </trkpt>
      <trkpt lat="43.04471" lon="-0.48513">
        <ele>1309.453125</ele>
        <time>2013-09-01T09:28:02Z</time>
      </trkpt>
      <trkpt lat="43.04465" lon="-0.48542">
        <ele>1310.89502</ele>
        <time>2013-09-01T09:28:24Z</time>
      </trkpt>
      <trkpt lat="43.04461" lon="-0.48559">
        <ele>1312.817627</ele>
        <time>2013-09-01T09:28:37Z</time>
      </trkpt>
      <trkpt lat="43.0445" lon="-0.48595">
        <ele>1312.336914</ele>
        <time>2013-09-01T09:29:04Z</time>
      </trkpt>
      <trkpt lat="43.0444" lon="-0.4862">
        <ele>1313.29834</ele>
        <time>2013-09-01T09:29:24Z</time>
      </trkpt>
      <trkpt lat="43.04443" lon="-0.48643">
        <ele>1315.220947</ele>
        <time>2013-09-01T09:29:43Z</time>
      </trkpt>
      <trkpt lat="43.04447" lon="-0.48661">
        <ele>1318.585449</ele>
        <time>2013-09-01T09:29:57Z</time>
      </trkpt>
      <trkpt lat="43.04447" lon="-0.4868">
        <ele>1320.508057</ele>
        <time>2013-09-01T09:30:16Z</time>
      </trkpt>
      <trkpt lat="43.04442" lon="-0.48699">
        <ele>1322.911377</ele>
        <time>2013-09-01T09:30:34Z</time>
      </trkpt>
      <trkpt lat="43.04438" lon="-0.48721">
        <ele>1324.353516</ele>
        <time>2013-09-01T09:30:53Z</time>
      </trkpt>
      <trkpt lat="43.04435" lon="-0.48743">
        <ele>1327.237549</ele>
        <time>2013-09-01T09:31:11Z</time>
      </trkpt>
      <trkpt lat="43.04428" lon="-0.48764">
        <ele>1328.679443</ele>
        <time>2013-09-01T09:31:30Z</time>
      </trkpt>
      <trkpt lat="43.04424" lon="-0.48772">
        <ele>1329.640625</ele>
        <time>2013-09-01T09:31:37Z</time>
      </trkpt>
      <trkpt lat="43.04417" lon="-0.48788">
        <ele>1331.563232</ele>
        <time>2013-09-01T09:31:53Z</time>
      </trkpt>
      <trkpt lat="43.04419" lon="-0.48797">
        <ele>1333.966553</ele>
        <time>2013-09-01T09:32:07Z</time>
      </trkpt>
      <trkpt lat="43.04417" lon="-0.48807">
        <ele>1336.850342</ele>
        <time>2013-09-01T09:32:19Z</time>
      </trkpt>
      <trkpt lat="43.04419" lon="-0.48818">
        <ele>1337.331055</ele>
        <time>2013-09-01T09:32:34Z</time>
      </trkpt>
      <trkpt lat="43.04426" lon="-0.48825">
        <ele>1340.215332</ele>
        <time>2013-09-01T09:32:50Z</time>
      </trkpt>
      <trkpt lat="43.04432" lon="-0.48835">
        <ele>1343.099121</ele>
        <time>2013-09-01T09:33:04Z</time>
      </trkpt>
      <trkpt lat="43.04439" lon="-0.48843">
        <ele>1345.502441</ele>
        <time>2013-09-01T09:33:19Z</time>
      </trkpt>
      <trkpt lat="43.04446" lon="-0.48853">
        <ele>1348.38623</ele>
        <time>2013-09-01T09:33:34Z</time>
      </trkpt>
      <trkpt lat="43.04448" lon="-0.48855">
        <ele>1350.309082</ele>
        <time>2013-09-01T09:33:39Z</time>
      </trkpt>
      <trkpt lat="43.04452" lon="-0.48859">
        <ele>1352.712158</ele>
        <time>2013-09-01T09:33:50Z</time>
      </trkpt>
      <trkpt lat="43.04456" lon="-0.48864">
        <ele>1355.596191</ele>
        <time>2013-09-01T09:34:04Z</time>
      </trkpt>
      <trkpt lat="43.0446" lon="-0.48873">
        <ele>1358.960938</ele>
        <time>2013-09-01T09:34:17Z</time>
      </trkpt>
      <trkpt lat="43.04465" lon="-0.48878">
        <ele>1361.844971</ele>
        <time>2013-09-01T09:34:29Z</time>
      </trkpt>
      <trkpt lat="43.04467" lon="-0.48885">
        <ele>1362.325439</ele>
        <time>2013-09-01T09:34:44Z</time>
      </trkpt>
      <trkpt lat="43.04467" lon="-0.48896">
        <ele>1362.806152</ele>
        <time>2013-09-01T09:35:01Z</time>
      </trkpt>
      <trkpt lat="43.04467" lon="-0.48898">
        <ele>1362.806152</ele>
        <time>2013-09-01T09:36:50Z</time>
      </trkpt>
      <trkpt lat="43.04469" lon="-0.4891">
        <ele>1362.806152</ele>
        <time>2013-09-01T09:37:05Z</time>
      </trkpt>
      <trkpt lat="43.04473" lon="-0.48931">
        <ele>1364.72876</ele>
        <time>2013-09-01T09:37:24Z</time>
      </trkpt>
      <trkpt lat="43.04475" lon="-0.4894">
        <ele>1368.093262</ele>
        <time>2013-09-01T09:37:35Z</time>
      </trkpt>
      <trkpt lat="43.04474" lon="-0.48955">
        <ele>1368.573975</ele>
        <time>2013-09-01T09:37:50Z</time>
      </trkpt>
      <trkpt lat="43.04473" lon="-0.48965">
        <ele>1371.457764</ele>
        <time>2013-09-01T09:38:01Z</time>
      </trkpt>
      <trkpt lat="43.04474" lon="-0.48974">
        <ele>1372.419434</ele>
        <time>2013-09-01T09:38:09Z</time>
      </trkpt>
      <trkpt lat="43.04474" lon="-0.48994">
        <ele>1374.822754</ele>
        <time>2013-09-01T09:38:27Z</time>
      </trkpt>
      <trkpt lat="43.04474" lon="-0.49008">
        <ele>1377.706543</ele>
        <time>2013-09-01T09:38:41Z</time>
      </trkpt>
      <trkpt lat="43.04472" lon="-0.49025">
        <ele>1381.071289</ele>
        <time>2013-09-01T09:38:56Z</time>
      </trkpt>
      <trkpt lat="43.04471" lon="-0.49027">
        <ele>1381.071289</ele>
        <time>2013-09-01T09:38:57Z</time>
      </trkpt>
      <trkpt lat="43.04466" lon="-0.49037">
        <ele>1382.032471</ele>
        <time>2013-09-01T09:39:08Z</time>
      </trkpt>
      <trkpt lat="43.0446" lon="-0.49051">
        <ele>1385.396973</ele>
        <time>2013-09-01T09:39:23Z</time>
      </trkpt>
      <trkpt lat="43.04458" lon="-0.49065">
        <ele>1388.28125</ele>
        <time>2013-09-01T09:39:39Z</time>
      </trkpt>
      <trkpt lat="43.04459" lon="-0.49069">
        <ele>1390.203857</ele>
        <time>2013-09-01T09:39:44Z</time>
      </trkpt>
      <trkpt lat="43.04459" lon="-0.49077">
        <ele>1393.087646</ele>
        <time>2013-09-01T09:39:54Z</time>
      </trkpt>
      <trkpt lat="43.0446" lon="-0.49087">
        <ele>1395.97168</ele>
        <time>2013-09-01T09:40:09Z</time>
      </trkpt>
      <trkpt lat="43.0446" lon="-0.49094">
        <ele>1399.336182</ele>
        <time>2013-09-01T09:40:22Z</time>
      </trkpt>
      <trkpt lat="43.04458" lon="-0.491">
        <ele>1402.219971</ele>
        <time>2013-09-01T09:40:32Z</time>
      </trkpt>
      <trkpt lat="43.04457" lon="-0.49101">
        <ele>1402.219971</ele>
        <time>2013-09-01T09:40:33Z</time>
      </trkpt>
      <trkpt lat="43.04449" lon="-0.4911">
        <ele>1404.623535</ele>
        <time>2013-09-01T09:40:49Z</time>
      </trkpt>
      <trkpt lat="43.04445" lon="-0.49116">
        <ele>1405.584961</ele>
        <time>2013-09-01T09:41:12Z</time>
      </trkpt>
      <trkpt lat="43.04443" lon="-0.49129">
        <ele>1407.988281</ele>
        <time>2013-09-01T09:41:28Z</time>
      </trkpt>
      <trkpt lat="43.04443" lon="-0.49133">
        <ele>1411.352783</ele>
        <time>2013-09-01T09:41:40Z</time>
      </trkpt>
      <trkpt lat="43.04443" lon="-0.49144">
        <ele>1413.755859</ele>
        <time>2013-09-01T09:42:13Z</time>
      </trkpt>
      <trkpt lat="43.04443" lon="-0.49147">
        <ele>1415.197998</ele>
        <time>2013-09-01T09:42:25Z</time>
      </trkpt>
      <trkpt lat="43.04443" lon="-0.49147">
        <ele>1415.678711</ele>
        <time>2013-09-01T09:43:19Z</time>
      </trkpt>
      <trkpt lat="43.04443" lon="-0.49147">
        <ele>1415.197998</ele>
        <time>2013-09-01T09:43:37Z</time>
      </trkpt>
      <trkpt lat="43.04442" lon="-0.49148">
        <ele>1415.197998</ele>
        <time>2013-09-01T09:45:19Z</time>
      </trkpt>
      <trkpt lat="43.04444" lon="-0.49146">
        <ele>1413.755859</ele>
        <time>2013-09-01T09:46:33Z</time>
      </trkpt>
      <trkpt lat="43.04443" lon="-0.49146">
        <ele>1413.755859</ele>
        <time>2013-09-01T09:47:08Z</time>
      </trkpt>
      <trkpt lat="43.04444" lon="-0.49156">
        <ele>1416.639893</ele>
        <time>2013-09-01T09:47:42Z</time>
      </trkpt>
      <trkpt lat="43.04446" lon="-0.4917">
        <ele>1420.004639</ele>
        <time>2013-09-01T09:47:56Z</time>
      </trkpt>
      <trkpt lat="43.04446" lon="-0.49182">
        <ele>1422.888672</ele>
        <time>2013-09-01T09:48:08Z</time>
      </trkpt>
      <trkpt lat="43.04447" lon="-0.49189">
        <ele>1426.253174</ele>
        <time>2013-09-01T09:48:18Z</time>
      </trkpt>
      <trkpt lat="43.04445" lon="-0.49199">
        <ele>1428.175781</ele>
        <time>2013-09-01T09:48:36Z</time>
      </trkpt>
      <trkpt lat="43.04444" lon="-0.49209">
        <ele>1430.098389</ele>
        <time>2013-09-01T09:48:51Z</time>
      </trkpt>
      <trkpt lat="43.04442" lon="-0.49225">
        <ele>1432.501709</ele>
        <time>2013-09-01T09:49:10Z</time>
      </trkpt>
      <trkpt lat="43.04443" lon="-0.49234">
        <ele>1435.866211</ele>
        <time>2013-09-01T09:49:21Z</time>
      </trkpt>
      <trkpt lat="43.04448" lon="-0.49248">
        <ele>1438.750488</ele>
        <time>2013-09-01T09:49:39Z</time>
      </trkpt>
      <trkpt lat="43.04451" lon="-0.49259">
        <ele>1442.11499</ele>
        <time>2013-09-01T09:49:53Z</time>
      </trkpt>
      <trkpt lat="43.04453" lon="-0.49269">
        <ele>1444.518066</ele>
        <time>2013-09-01T09:50:08Z</time>
      </trkpt>
      <trkpt lat="43.04454" lon="-0.49282">
        <ele>1447.4021</ele>
        <time>2013-09-01T09:50:25Z</time>
      </trkpt>
      <trkpt lat="43.04454" lon="-0.49286">
        <ele>1448.843994</ele>
        <time>2013-09-01T09:50:29Z</time>
      </trkpt>
      <trkpt lat="43.04455" lon="-0.49302">
        <ele>1451.728027</ele>
        <time>2013-09-01T09:50:45Z</time>
      </trkpt>
      <trkpt lat="43.04456" lon="-0.49321">
        <ele>1455.092773</ele>
        <time>2013-09-01T09:51:05Z</time>
      </trkpt>
      <trkpt lat="43.04457" lon="-0.49336">
        <ele>1457.976807</ele>
        <time>2013-09-01T09:51:21Z</time>
      </trkpt>
      <trkpt lat="43.0446" lon="-0.49352">
        <ele>1460.860596</ele>
        <time>2013-09-01T09:51:37Z</time>
      </trkpt>
      <trkpt lat="43.04466" lon="-0.49357">
        <ele>1464.225098</ele>
        <time>2013-09-01T09:51:49Z</time>
      </trkpt>
      <trkpt lat="43.04467" lon="-0.49358">
        <ele>1464.705811</ele>
        <time>2013-09-01T09:51:50Z</time>
      </trkpt>
      <trkpt lat="43.04471" lon="-0.49365">
        <ele>1467.5896</ele>
        <time>2013-09-01T09:52:02Z</time>
      </trkpt>
      <trkpt lat="43.04471" lon="-0.49365">
        <ele>1467.5896</ele>
        <time>2013-09-01T09:52:03Z</time>
      </trkpt>
      <trkpt lat="43.04474" lon="-0.49378">
        <ele>1469.993164</ele>
        <time>2013-09-01T09:52:19Z</time>
      </trkpt>
      <trkpt lat="43.04474" lon="-0.49382">
        <ele>1472.877197</ele>
        <time>2013-09-01T09:52:25Z</time>
      </trkpt>
      <trkpt lat="43.04472" lon="-0.49395">
        <ele>1476.241699</ele>
        <time>2013-09-01T09:52:40Z</time>
      </trkpt>
      <trkpt lat="43.0447" lon="-0.49414">
        <ele>1477.683594</ele>
        <time>2013-09-01T09:53:01Z</time>
      </trkpt>
      <trkpt lat="43.04467" lon="-0.49429">
        <ele>1481.04834</ele>
        <time>2013-09-01T09:53:18Z</time>
      </trkpt>
      <trkpt lat="43.04466" lon="-0.49442">
        <ele>1483.932129</ele>
        <time>2013-09-01T09:53:32Z</time>
      </trkpt>
      <trkpt lat="43.04466" lon="-0.49458">
        <ele>1487.296875</ele>
        <time>2013-09-01T09:53:48Z</time>
      </trkpt>
      <trkpt lat="43.04466" lon="-0.49469">
        <ele>1490.180908</ele>
        <time>2013-09-01T09:54:02Z</time>
      </trkpt>
      <trkpt lat="43.04461" lon="-0.4948">
        <ele>1493.54541</ele>
        <time>2013-09-01T09:54:14Z</time>
      </trkpt>
      <trkpt lat="43.04458" lon="-0.4949">
        <ele>1496.909912</ele>
        <time>2013-09-01T09:54:29Z</time>
      </trkpt>
      <trkpt lat="43.0446" lon="-0.495">
        <ele>1500.274902</ele>
        <time>2013-09-01T09:54:44Z</time>
      </trkpt>
      <trkpt lat="43.04462" lon="-0.4951">
        <ele>1503.639404</ele>
        <time>2013-09-01T09:54:59Z</time>
      </trkpt>
      <trkpt lat="43.04462" lon="-0.49521">
        <ele>1506.523193</ele>
        <time>2013-09-01T09:55:14Z</time>
      </trkpt>
      <trkpt lat="43.04465" lon="-0.49529">
        <ele>1510.368408</ele>
        <time>2013-09-01T09:55:27Z</time>
      </trkpt>
      <trkpt lat="43.0447" lon="-0.49535">
        <ele>1511.810547</ele>
        <time>2013-09-01T09:55:44Z</time>
      </trkpt>
      <trkpt lat="43.04473" lon="-0.49545">
        <ele>1514.694336</ele>
        <time>2013-09-01T09:55:58Z</time>
      </trkpt>
      <trkpt lat="43.04474" lon="-0.49551">
        <ele>1517.0979</ele>
        <time>2013-09-01T09:56:18Z</time>
      </trkpt>
      <trkpt lat="43.04477" lon="-0.4956">
        <ele>1519.501221</ele>
        <time>2013-09-01T09:56:37Z</time>
      </trkpt>
      <trkpt lat="43.0448" lon="-0.49567">
        <ele>1521.904297</ele>
        <time>2013-09-01T09:56:54Z</time>
      </trkpt>
      <trkpt lat="43.04483" lon="-0.49576">
        <ele>1525.268799</ele>
        <time>2013-09-01T09:57:05Z</time>
      </trkpt>
      <trkpt lat="43.04483" lon="-0.4959">
        <ele>1528.633545</ele>
        <time>2013-09-01T09:57:22Z</time>
      </trkpt>
      <trkpt lat="43.04477" lon="-0.49602">
        <ele>1531.998047</ele>
        <time>2013-09-01T09:57:39Z</time>
      </trkpt>
      <trkpt lat="43.04477" lon="-0.49608">
        <ele>1535.362793</ele>
        <time>2013-09-01T09:57:49Z</time>
      </trkpt>
      <trkpt lat="43.04483" lon="-0.49621">
        <ele>1538.727539</ele>
        <time>2013-09-01T09:58:06Z</time>
      </trkpt>
      <trkpt lat="43.04482" lon="-0.49637">
        <ele>1542.092041</ele>
        <time>2013-09-01T09:58:22Z</time>
      </trkpt>
      <trkpt lat="43.04483" lon="-0.49647">
        <ele>1544.014648</ele>
        <time>2013-09-01T09:58:40Z</time>
      </trkpt>
      <trkpt lat="43.04482" lon="-0.49661">
        <ele>1546.898438</ele>
        <time>2013-09-01T09:59:15Z</time>
      </trkpt>
      <trkpt lat="43.04481" lon="-0.49673">
        <ele>1547.859863</ele>
        <time>2013-09-01T09:59:31Z</time>
      </trkpt>
      <trkpt lat="43.04482" lon="-0.49677">
        <ele>1547.859863</ele>
        <time>2013-09-01T09:59:35Z</time>
      </trkpt>
      <trkpt lat="43.04487" lon="-0.49685">
        <ele>1548.340576</ele>
        <time>2013-09-01T09:59:49Z</time>
      </trkpt>
      <trkpt lat="43.04486" lon="-0.49689">
        <ele>1547.37915</ele>
        <time>2013-09-01T10:00:06Z</time>
      </trkpt>
      <trkpt lat="43.04485" lon="-0.49688">
        <ele>1543.053223</ele>
        <time>2013-09-01T10:00:28Z</time>
      </trkpt>
      <trkpt lat="43.04485" lon="-0.49688">
        <ele>1548.340576</ele>
        <time>2013-09-01T10:00:29Z</time>
      </trkpt>
      <trkpt lat="43.04484" lon="-0.49689">
        <ele>1546.417969</ele>
        <time>2013-09-01T10:02:19Z</time>
      </trkpt>
      <trkpt lat="43.04485" lon="-0.49688">
        <ele>1548.340576</ele>
        <time>2013-09-01T10:03:57Z</time>
      </trkpt>
      <trkpt lat="43.04488" lon="-0.49688">
        <ele>1548.340576</ele>
        <time>2013-09-01T10:04:24Z</time>
      </trkpt>
      <trkpt lat="43.04488" lon="-0.49689">
        <ele>1547.859863</ele>
        <time>2013-09-01T10:05:23Z</time>
      </trkpt>
      <trkpt lat="43.04487" lon="-0.49688">
        <ele>1548.340576</ele>
        <time>2013-09-01T10:06:05Z</time>
      </trkpt>
      <trkpt lat="43.04481" lon="-0.49695">
        <ele>1549.782715</ele>
        <time>2013-09-01T10:06:34Z</time>
      </trkpt>
      <trkpt lat="43.04475" lon="-0.49708">
        <ele>1551.705322</ele>
        <time>2013-09-01T10:06:50Z</time>
      </trkpt>
      <trkpt lat="43.04473" lon="-0.49725">
        <ele>1554.108643</ele>
        <time>2013-09-01T10:07:07Z</time>
      </trkpt>
      <trkpt lat="43.04473" lon="-0.49743">
        <ele>1556.031006</ele>
        <time>2013-09-01T10:07:25Z</time>
      </trkpt>
      <trkpt lat="43.04473" lon="-0.49758">
        <ele>1558.434326</ele>
        <time>2013-09-01T10:07:40Z</time>
      </trkpt>
      <trkpt lat="43.04474" lon="-0.49771">
        <ele>1561.799072</ele>
        <time>2013-09-01T10:07:54Z</time>
      </trkpt>
      <trkpt lat="43.04471" lon="-0.49791">
        <ele>1563.721436</ele>
        <time>2013-09-01T10:08:13Z</time>
      </trkpt>
      <trkpt lat="43.04469" lon="-0.498">
        <ele>1566.605713</ele>
        <time>2013-09-01T10:08:25Z</time>
      </trkpt>
      <trkpt lat="43.04463" lon="-0.49813">
        <ele>1569.489746</ele>
        <time>2013-09-01T10:08:40Z</time>
      </trkpt>
      <trkpt lat="43.04454" lon="-0.49828">
        <ele>1570.931641</ele>
        <time>2013-09-01T10:08:57Z</time>
      </trkpt>
      <trkpt lat="43.04449" lon="-0.49844">
        <ele>1570.931641</ele>
        <time>2013-09-01T10:09:12Z</time>
      </trkpt>
      <trkpt lat="43.04447" lon="-0.49861">
        <ele>1572.854248</ele>
        <time>2013-09-01T10:09:27Z</time>
      </trkpt>
      <trkpt lat="43.04441" lon="-0.49883">
        <ele>1575.738037</ele>
        <time>2013-09-01T10:09:44Z</time>
      </trkpt>
      <trkpt lat="43.04439" lon="-0.49897">
        <ele>1577.180176</ele>
        <time>2013-09-01T10:09:55Z</time>
      </trkpt>
      <trkpt lat="43.04437" lon="-0.49912">
        <ele>1579.102539</ele>
        <time>2013-09-01T10:10:07Z</time>
      </trkpt>
      <trkpt lat="43.04435" lon="-0.49929">
        <ele>1581.986816</ele>
        <time>2013-09-01T10:10:21Z</time>
      </trkpt>
      <trkpt lat="43.04433" lon="-0.49949">
        <ele>1584.390137</ele>
        <time>2013-09-01T10:10:39Z</time>
      </trkpt>
      <trkpt lat="43.04432" lon="-0.49961">
        <ele>1585.351318</ele>
        <time>2013-09-01T10:10:49Z</time>
      </trkpt>
      <trkpt lat="43.04429" lon="-0.49987">
        <ele>1587.754639</ele>
        <time>2013-09-01T10:11:09Z</time>
      </trkpt>
      <trkpt lat="43.04427" lon="-0.49998">
        <ele>1591.119141</ele>
        <time>2013-09-01T10:11:18Z</time>
      </trkpt>
      <trkpt lat="43.04421" lon="-0.50018">
        <ele>1593.522461</ele>
        <time>2013-09-01T10:11:37Z</time>
      </trkpt>
      <trkpt lat="43.04416" lon="-0.50035">
        <ele>1595.445068</ele>
        <time>2013-09-01T10:11:53Z</time>
      </trkpt>
      <trkpt lat="43.04415" lon="-0.50047">
        <ele>1598.809814</ele>
        <time>2013-09-01T10:12:06Z</time>
      </trkpt>
      <trkpt lat="43.04418" lon="-0.5006">
        <ele>1602.174316</ele>
        <time>2013-09-01T10:12:22Z</time>
      </trkpt>
      <trkpt lat="43.0442" lon="-0.50066">
        <ele>1604.097168</ele>
        <time>2013-09-01T10:12:30Z</time>
      </trkpt>
      <trkpt lat="43.04423" lon="-0.50078">
        <ele>1606.980957</ele>
        <time>2013-09-01T10:12:45Z</time>
      </trkpt>
      <trkpt lat="43.04428" lon="-0.50091">
        <ele>1611.306885</ele>
        <time>2013-09-01T10:13:01Z</time>
      </trkpt>
      <trkpt lat="43.04433" lon="-0.50098">
        <ele>1614.190918</ele>
        <time>2013-09-01T10:13:13Z</time>
      </trkpt>
      <trkpt lat="43.04445" lon="-0.50098">
        <ele>1617.55542</ele>
        <time>2013-09-01T10:13:31Z</time>
      </trkpt>
      <trkpt lat="43.04456" lon="-0.50094">
        <ele>1621.400635</ele>
        <time>2013-09-01T10:13:46Z</time>
      </trkpt>
      <trkpt lat="43.04454" lon="-0.50101">
        <ele>1621.400635</ele>
        <time>2013-09-01T10:13:57Z</time>
      </trkpt>
      <trkpt lat="43.04448" lon="-0.5012">
        <ele>1623.323486</ele>
        <time>2013-09-01T10:14:14Z</time>
      </trkpt>
      <trkpt lat="43.04436" lon="-0.50139">
        <ele>1625.726563</ele>
        <time>2013-09-01T10:14:33Z</time>
      </trkpt>
      <trkpt lat="43.04432" lon="-0.50153">
        <ele>1629.091309</ele>
        <time>2013-09-01T10:14:47Z</time>
      </trkpt>
      <trkpt lat="43.04431" lon="-0.50161">
        <ele>1629.572021</ele>
        <time>2013-09-01T10:15:00Z</time>
      </trkpt>
      <trkpt lat="43.0443" lon="-0.50178">
        <ele>1631.975342</ele>
        <time>2013-09-01T10:15:17Z</time>
      </trkpt>
      <trkpt lat="43.04423" lon="-0.50201">
        <ele>1633.897949</ele>
        <time>2013-09-01T10:15:38Z</time>
      </trkpt>
      <trkpt lat="43.04418" lon="-0.50217">
        <ele>1636.781738</ele>
        <time>2013-09-01T10:15:53Z</time>
      </trkpt>
      <trkpt lat="43.04412" lon="-0.50234">
        <ele>1640.626953</ele>
        <time>2013-09-01T10:16:09Z</time>
      </trkpt>
      <trkpt lat="43.04412" lon="-0.50235">
        <ele>1640.626953</ele>
        <time>2013-09-01T10:16:10Z</time>
      </trkpt>
      <trkpt lat="43.04408" lon="-0.50251">
        <ele>1643.991699</ele>
        <time>2013-09-01T10:16:26Z</time>
      </trkpt>
      <trkpt lat="43.04408" lon="-0.50263">
        <ele>1645.914551</ele>
        <time>2013-09-01T10:16:39Z</time>
      </trkpt>
      <trkpt lat="43.04411" lon="-0.50271">
        <ele>1649.279053</ele>
        <time>2013-09-01T10:16:48Z</time>
      </trkpt>
      <trkpt lat="43.04412" lon="-0.50272">
        <ele>1649.279053</ele>
        <time>2013-09-01T10:16:49Z</time>
      </trkpt>
      <trkpt lat="43.04415" lon="-0.50289">
        <ele>1651.20166</ele>
        <time>2013-09-01T10:17:05Z</time>
      </trkpt>
      <trkpt lat="43.04419" lon="-0.50298">
        <ele>1651.682373</ele>
        <time>2013-09-01T10:17:20Z</time>
      </trkpt>
      <trkpt lat="43.04423" lon="-0.5031">
        <ele>1650.720947</ele>
        <time>2013-09-01T10:17:30Z</time>
      </trkpt>
      <trkpt lat="43.04422" lon="-0.50314">
        <ele>1650.720947</ele>
        <time>2013-09-01T10:17:33Z</time>
      </trkpt>
      <trkpt lat="43.04424" lon="-0.5033">
        <ele>1651.20166</ele>
        <time>2013-09-01T10:17:49Z</time>
      </trkpt>
      <trkpt lat="43.04424" lon="-0.50355">
        <ele>1651.20166</ele>
        <time>2013-09-01T10:18:08Z</time>
      </trkpt>
      <trkpt lat="43.04423" lon="-0.50356">
        <ele>1650.720947</ele>
        <time>2013-09-01T10:18:09Z</time>
      </trkpt>
      <trkpt lat="43.04422" lon="-0.50364">
        <ele>1650.720947</ele>
        <time>2013-09-01T10:18:16Z</time>
      </trkpt>
      <trkpt lat="43.04428" lon="-0.50381">
        <ele>1650.720947</ele>
        <time>2013-09-01T10:18:32Z</time>
      </trkpt>
      <trkpt lat="43.04438" lon="-0.50396">
        <ele>1650.240479</ele>
        <time>2013-09-01T10:18:51Z</time>
      </trkpt>
      <trkpt lat="43.04446" lon="-0.50413">
        <ele>1649.759766</ele>
        <time>2013-09-01T10:19:08Z</time>
      </trkpt>
      <trkpt lat="43.0445" lon="-0.50423">
        <ele>1650.240479</ele>
        <time>2013-09-01T10:19:18Z</time>
      </trkpt>
      <trkpt lat="43.04455" lon="-0.50436">
        <ele>1649.279053</ele>
        <time>2013-09-01T10:19:30Z</time>
      </trkpt>
      <trkpt lat="43.04459" lon="-0.50452">
        <ele>1648.79834</ele>
        <time>2013-09-01T10:19:46Z</time>
      </trkpt>
      <trkpt lat="43.04462" lon="-0.50464">
        <ele>1647.356445</ele>
        <time>2013-09-01T10:20:03Z</time>
      </trkpt>
      <trkpt lat="43.04466" lon="-0.50466">
        <ele>1647.837158</ele>
        <time>2013-09-01T10:20:27Z</time>
      </trkpt>
      <trkpt lat="43.04466" lon="-0.50469">
        <ele>1647.356445</ele>
        <time>2013-09-01T10:21:09Z</time>
      </trkpt>
      <trkpt lat="43.0446" lon="-0.5048">
        <ele>1644.472412</ele>
        <time>2013-09-01T10:21:26Z</time>
      </trkpt>
      <trkpt lat="43.04458" lon="-0.50483">
        <ele>1643.510986</ele>
        <time>2013-09-01T10:21:32Z</time>
      </trkpt>
      <trkpt lat="43.04454" lon="-0.50487">
        <ele>1641.588379</ele>
        <time>2013-09-01T10:21:49Z</time>
      </trkpt>
      <trkpt lat="43.04452" lon="-0.50487">
        <ele>1641.107666</ele>
        <time>2013-09-01T10:22:07Z</time>
      </trkpt>
      <trkpt lat="43.04449" lon="-0.50492">
        <ele>1639.665771</ele>
        <time>2013-09-01T10:22:24Z</time>
      </trkpt>
      <trkpt lat="43.0444" lon="-0.50505">
        <ele>1637.743164</ele>
        <time>2013-09-01T10:22:44Z</time>
      </trkpt>
      <trkpt lat="43.04433" lon="-0.50512">
        <ele>1635.820557</ele>
        <time>2013-09-01T10:22:59Z</time>
      </trkpt>
      <trkpt lat="43.04428" lon="-0.50518">
        <ele>1634.859375</ele>
        <time>2013-09-01T10:23:19Z</time>
      </trkpt>
      <trkpt lat="43.04425" lon="-0.50534">
        <ele>1631.494629</ele>
        <time>2013-09-01T10:23:38Z</time>
      </trkpt>
      <trkpt lat="43.04421" lon="-0.50542">
        <ele>1629.572021</ele>
        <time>2013-09-01T10:23:52Z</time>
      </trkpt>
      <trkpt lat="43.04418" lon="-0.50545">
        <ele>1628.130127</ele>
        <time>2013-09-01T10:24:09Z</time>
      </trkpt>
      <trkpt lat="43.04416" lon="-0.50548">
        <ele>1628.130127</ele>
        <time>2013-09-01T10:24:27Z</time>
      </trkpt>
      <trkpt lat="43.04417" lon="-0.50547">
        <ele>1627.64917</ele>
        <time>2013-09-01T10:24:44Z</time>
      </trkpt>
      <trkpt lat="43.04417" lon="-0.50547">
        <ele>1627.168701</ele>
        <time>2013-09-01T10:25:33Z</time>
      </trkpt>
      <trkpt lat="43.04419" lon="-0.50547">
        <ele>1627.168701</ele>
        <time>2013-09-01T10:26:47Z</time>
      </trkpt>
      <trkpt lat="43.04418" lon="-0.50547">
        <ele>1627.64917</ele>
        <time>2013-09-01T10:26:51Z</time>
      </trkpt>
      <trkpt lat="43.04417" lon="-0.50545">
        <ele>1628.61084</ele>
        <time>2013-09-01T10:26:53Z</time>
      </trkpt>
      <trkpt lat="43.04418" lon="-0.50546">
        <ele>1627.64917</ele>
        <time>2013-09-01T10:27:35Z</time>
      </trkpt>
      <trkpt lat="43.04417" lon="-0.50546">
        <ele>1627.168701</ele>
        <time>2013-09-01T10:37:53Z</time>
      </trkpt>
      <trkpt lat="43.04418" lon="-0.50546">
        <ele>1626.687988</ele>
        <time>2013-09-01T10:38:43Z</time>
      </trkpt>
      <trkpt lat="43.04419" lon="-0.50546">
        <ele>1626.207275</ele>
        <time>2013-09-01T10:38:56Z</time>
      </trkpt>
      <trkpt lat="43.04418" lon="-0.50547">
        <ele>1629.572021</ele>
        <time>2013-09-01T10:47:13Z</time>
      </trkpt>
      <trkpt lat="43.04419" lon="-0.50548">
        <ele>1631.975342</ele>
        <time>2013-09-01T10:47:21Z</time>
      </trkpt>
      <trkpt lat="43.04419" lon="-0.50548">
        <ele>1628.61084</ele>
        <time>2013-09-01T10:47:23Z</time>
      </trkpt>
      <trkpt lat="43.04419" lon="-0.50548">
        <ele>1628.61084</ele>
        <time>2013-09-01T10:47:24Z</time>
      </trkpt>
      <trkpt lat="43.04423" lon="-0.50548">
        <ele>1628.130127</ele>
        <time>2013-09-01T10:48:02Z</time>
      </trkpt>
    </trkseg>
  </trk>
  <trk>
    <name><![CDATA[ACTIVE LOG 005]]></name>
    <trkseg>
      <trkpt lat="43.0442" lon="-0.50549">
        <ele>877.340576</ele>
        <time>2013-09-01T13:47:16Z</time>
      </trkpt>
      <trkpt lat="43.0442" lon="-0.50549">
        <ele>860.036621</ele>
        <time>2013-09-01T13:47:17Z</time>
      </trkpt>
      <trkpt lat="43.0442" lon="-0.50549">
        <ele>858.594482</ele>
        <time>2013-09-01T13:47:26Z</time>
      </trkpt>
    </trkseg>
  </trk>
</gpx>